Time;durP1;ratioP1;P1;durP2;ratioP2;P2;SDS_P1;SDS_P2;PMS_P1;PMS_P2;Temp;Humidity;BMP_temperature;BMP_pressure;BME280_temperature;BME280_humidity;BME280_pressure;Samples;Min_cycle;Max_cycle;Signal;HPM_P1;HPM_P2
2022/05/03 00:04:51;;;;;;;;;;;;;;;11.57;66.05;100871.75;4950220;28;19915;-95
2022/05/03 00:10:30;;;;;;;;;;;;;;;11.51;66.15;100873.22;5027426;23;19950;-94
2022/05/03 00:16:08;;;;;;;;;;;;;;;11.57;65.65;100871.75;5052711;23;19915;-96
2022/05/03 00:24:48;;;;;;;;;;;;;;;11.58;65.49;100868.88;4970261;28;19986;-95
2022/05/03 00:27:20;;;;;;;;;;;;;;;11.49;65.78;100867.16;5062722;23;19930;-93
2022/05/03 00:29:49;;;;;;;;;;;;;;;11.45;66.11;100868.50;4953219;28;19914;-93
2022/05/03 00:39:06;;;;;;;;;;;;;;;11.40;66.34;100862.75;4963851;28;19911;-96
2022/05/03 00:42:29;;;;;;;;;;;;;;;11.40;66.44;100852.84;4931825;28;20368;-96
2022/05/03 01:47:48;;;;;;;;;;;;;;;11.16;67.32;100821.25;5222120;23;19930;-93
2022/05/03 01:50:36;;;;;;;;;;;;;;;11.10;67.54;100830.00;4950069;28;19922;-95
2022/05/03 01:53:21;;;;;;;;;;;;;;;11.09;67.66;100828.28;4976392;28;19933;-95
2022/05/03 02:02:32;;;;;;;;;;;;;;;10.92;68.24;100831.91;4970939;28;20000;-96
2022/05/03 02:05:18;;;;;;;;;;;;;;;10.85;68.42;100820.09;4926898;28;20449;-91
2022/05/03 02:08:03;;;;;;;;;;;;;;;10.89;68.18;100825.00;4981488;28;19928;-93
2022/05/03 02:10:53;;;;;;;;;;;;;;;10.89;68.17;100824.16;4949540;28;19957;-96
2022/05/03 02:16:43;;;;;;;;;;;;;;;10.80;68.39;100823.25;4949984;23;19927;-95
2022/05/03 02:19:34;;;;;;;;;;;;;;;10.64;69.04;100818.59;4922513;29;19923;-94
2022/05/03 02:22:34;;;;;;;;;;;;;;;10.62;69.25;100820.59;4922078;29;19932;-95
2022/05/03 02:25:54;;;;;;;;;;;;;;;10.68;68.95;100819.97;4932676;29;19927;-96
2022/05/03 02:28:45;;;;;;;;;;;;;;;10.59;69.25;100812.84;4923517;29;19917;-95
2022/05/03 02:31:52;;;;;;;;;;;;;;;10.63;69.24;100814.25;4904279;29;20029;-95
2022/05/03 02:34:41;;;;;;;;;;;;;;;10.61;69.20;100818.94;4899605;29;19928;-94
2022/05/03 02:37:14;;;;;;;;;;;;;;;10.69;69.00;100818.97;4903989;29;19932;-93
2022/05/03 02:40:17;;;;;;;;;;;;;;;10.62;69.28;100819.75;4896772;29;19960;-95
2022/05/03 02:42:49;;;;;;;;;;;;;;;10.67;69.12;100818.28;4911479;29;19938;-94
2022/05/03 02:45:38;;;;;;;;;;;;;;;10.62;69.47;100819.75;4887577;29;20024;-95
2022/05/03 02:48:21;;;;;;;;;;;;;;;10.71;69.26;100825.03;4886599;29;19932;-95
2022/05/03 02:51:19;;;;;;;;;;;;;;;10.74;68.97;100824.72;4878049;29;19927;-94
2022/05/03 02:53:55;;;;;;;;;;;;;;;10.64;69.52;100829.34;4866485;29;19927;-94
2022/05/03 02:56:50;;;;;;;;;;;;;;;10.73;69.37;100830.25;4891569;29;19923;-95
2022/05/03 02:59:28;;;;;;;;;;;;;;;;;;;;;
2022/05/03 03:05:19;;;;;;;;;;;;;;;10.72;69.15;100824.06;4889696;29;19923;-96
2022/05/03 03:07:52;;;;;;;;;;;;;;;10.67;69.40;100818.28;4852002;29;19940;-96
2022/05/03 03:27:52;;;;;;;;;;;;;;;;;;;;;
2022/05/03 03:29:54;;;;;;;;;;;;;;;10.81;69.32;100826.78;4955429;28;19935;-94
2022/05/03 04:21:52;;;;;;;;;;;;;;;11.39;68.85;100834.16;5121856;22;25557168;-93
2022/05/03 04:24:18;;;;;;;;;;;;;;;11.44;68.52;100837.19;6199721;23;20353;-94
2022/05/03 04:27:18;;;;;;;;;;;;;;;11.50;68.38;100841.94;6205763;23;19919;-94
2022/05/03 04:34:55;;;;;;;;;;;;;;;11.78;67.75;100844.38;6218775;22;19927;-87
2022/05/03 04:37:30;;;;;;;;;;;;;;;11.73;67.97;100846.72;6191763;23;19924;-89
2022/05/03 04:39:57;;;;;;;;;;;;;;;11.80;67.65;100853.16;6228362;23;19915;-90
2022/05/03 04:42:37;;;;;;;;;;;;;;;11.86;67.62;100852.47;6207281;23;19968;-90
2022/05/03 04:45:18;;;;;;;;;;;;;;;11.79;68.06;100856.84;6091421;23;19969;-96
2022/05/03 04:48:02;;;;;;;;;;;;;;;11.90;68.07;100853.03;6136630;23;19927;-92
2022/05/03 04:50:34;;;;;;;;;;;;;;;12.02;67.37;100852.53;6158276;23;19905;-93
2022/05/03 04:53:39;;;;;;;;;;;;;;;12.04;67.50;100845.13;6163041;23;19939;-93
2022/05/03 04:56:05;;;;;;;;;;;;;;;12.15;67.30;100845.81;6165116;23;19928;-91
2022/05/03 04:58:34;;;;;;;;;;;;;;;12.23;68.69;100848.53;6154643;23;20455;-92
2022/05/03 05:01:01;;;;;;;;;;;;;;;12.23;67.94;100845.84;6126730;23;20373;-89
2022/05/03 05:03:28;;;;;;;;;;;;;;;12.23;67.31;100845.84;6154845;23;19923;-92
2022/05/03 05:05:54;;;;;;;;;;;;;;;12.34;68.12;100850.91;6154017;23;19916;-91
2022/05/03 05:08:23;;;;;;;;;;;;;;;12.37;66.92;100847.88;6134798;23;19912;-91
2022/05/03 05:10:59;;;;;;;;;;;;;;;;;;;;;
2022/05/03 05:13:28;;;;;;;;;;;;;;;12.53;66.80;100843.50;6153560;23;20025;-90
2022/05/03 05:15:58;;;;;;;;;;;;;;;12.59;66.00;100832.00;6133004;23;19978;-91
2022/05/03 05:18:29;;;;;;;;;;;;;;;12.66;65.97;100833.00;6140981;23;20051;-94
2022/05/03 05:20:59;;;;;;;;;;;;;;;12.62;65.72;100837.94;6164492;23;19916;-91
2022/05/03 05:23:27;;;;;;;;;;;;;;;12.67;66.90;100843.66;6154295;23;20016;-91
2022/05/03 05:26:02;;;;;;;;;;;;;;;12.67;67.65;100842.81;6148413;23;19917;-89
2022/05/03 05:28:29;;;;;;;;;;;;;;;12.73;65.98;100842.09;6157701;23;19920;-90
2022/05/03 05:30:55;;;;;;;;;;;;;;;12.63;66.04;100836.91;6158095;23;19916;-93
2022/05/03 05:33:20;;;;;;;;;;;;;;;12.66;67.02;100849.19;6152009;23;20376;-88
2022/05/03 05:35:46;;;;;;;;;;;;;;;12.54;66.25;100855.97;6164859;23;19916;-89
2022/05/03 05:38:17;;;;;;;;;;;;;;;12.54;66.35;100850.56;6204886;23;20006;-90
2022/05/03 05:40:43;;;;;;;;;;;;;;;12.56;66.28;100852.06;6195818;22;19908;-93
2022/05/03 05:43:08;;;;;;;;;;;;;;;12.51;66.41;100857.13;6168486;23;20027;-91
2022/05/03 05:45:41;;;;;;;;;;;;;;;12.73;65.75;100850.19;6158574;23;19957;-90
2022/05/03 05:48:08;;;;;;;;;;;;;;;12.97;64.90;100851.19;6186767;23;19916;-93
2022/05/03 05:50:34;;;;;;;;;;;;;;;12.97;64.90;100845.78;6192437;23;19915;-89
2022/05/03 05:55:46;;;;;;;;;;;;;;;13.37;63.33;100844.00;6210555;23;19972;-91
2022/05/03 05:58:12;;;;;;;;;;;;;;;13.38;63.04;100845.69;6189272;23;19916;-92
2022/05/03 06:00:40;;;;;;;;;;;;;;;13.43;62.57;100851.41;6160498;23;19935;-92
2022/05/03 06:03:07;;;;;;;;;;;;;;;13.32;62.53;100844.53;6185424;23;19912;-90
2022/05/03 06:05:58;;;;;;;;;;;;;;;13.45;62.06;100836.72;6190556;23;19965;-91
2022/05/03 06:08:24;;;;;;;;;;;;;;;13.54;61.70;100837.53;6210333;23;19923;-92
2022/05/03 06:10:57;;;;;;;;;;;;;;;13.38;62.14;100853.81;6189155;23;20302;-92
2022/05/03 06:13:24;;;;;;;;;;;;;;;13.54;61.69;100853.75;6162896;23;19916;-91
2022/05/03 06:15:50;;;;;;;;;;;;;;;13.38;61.64;100861.91;6185645;23;19912;-92
2022/05/03 06:18:18;;;;;;;;;;;;;;;13.47;61.49;100847.34;6215657;23;19911;-91
2022/05/03 06:20:45;;;;;;;;;;;;;;;13.18;62.00;100854.19;6198746;23;19920;-91
2022/05/03 06:23:12;;;;;;;;;;;;;;;13.25;62.15;100849.78;6194876;23;19923;-92
2022/05/03 06:25:41;;;;;;;;;;;;;;;13.49;61.53;100842.63;6165176;23;19956;-91
2022/05/03 06:28:10;;;;;;;;;;;;;;;13.59;61.11;100845.09;6212208;23;20212;-90
2022/05/03 06:30:35;;;;;;;;;;;;;;;13.77;60.63;100850.25;6194537;23;19912;-91
2022/05/03 06:33:05;;;;;;;;;;;;;;;13.83;60.47;100852.22;6198232;23;19927;-91
2022/05/03 06:35:35;;;;;;;;;;;;;;;14.08;59.20;100856.47;6229295;23;19916;-89
2022/05/03 06:38:00;;;;;;;;;;;;;;;13.99;59.20;100845.91;6199311;22;19916;-91
2022/05/03 06:40:29;;;;;;;;;;;;;;;14.08;58.79;100847.53;6188222;23;19919;-90
2022/05/03 06:42:56;;;;;;;;;;;;;;;14.29;57.77;100841.47;6212194;23;19918;-91
2022/05/03 06:45:24;;;;;;;;;;;;;;;14.23;57.91;100853.00;6216708;23;19912;-90
2022/05/03 06:47:51;;;;;;;;;;;;;;;14.29;57.37;100849.56;6163346;23;19923;-92
2022/05/03 06:50:20;;;;;;;;;;;;;;;14.38;57.39;100847.66;6210546;23;19904;-91
2022/05/03 06:52:58;;;;;;;;;;;;;;;14.71;56.53;100850.94;6199560;23;20306;-91
2022/05/03 06:55:27;;;;;;;;;;;;;;;14.92;55.76;100844.81;6192258;23;19923;-90
2022/05/03 06:57:54;;;;;;;;;;;;;;;14.92;55.69;100848.38;6166818;23;19912;-90
2022/05/03 07:00:20;;;;;;;;;;;;;;;15.15;54.96;100842.03;6207848;23;19904;-91
2022/05/03 07:02:45;;;;;;;;;;;;;;;15.46;54.13;100846.41;6204579;22;19973;-89
2022/05/03 07:05:35;;;;;;;;;;;;;;;15.31;54.07;100851.81;6212374;23;19919;-90
2022/05/03 07:08:22;;;;;;;;;;;;;;;15.45;53.85;100847.44;6219775;23;19912;-91
2022/05/03 07:10:50;;;;;;;;;;;;;;;15.55;53.46;100845.28;6226599;23;19964;-91
2022/05/03 07:13:23;;;;;;;;;;;;;;;15.70;52.21;100856.97;6191074;23;19904;-91
2022/05/03 07:15:49;;;;;;;;;;;;;;;15.99;51.18;100860.63;6191868;23;19908;-92
2022/05/03 07:23:51;;;;;;;;;;;;;;;15.78;50.95;100865.00;6210228;23;19937;-91
2022/05/03 07:26:16;;;;;;;;;;;;;;;15.98;50.63;100864.38;6188809;23;19953;-93
2022/05/03 07:28:43;;;;;;;;;;;;;;;15.75;50.22;100867.22;6195594;23;19916;-90
2022/05/03 07:31:11;;;;;;;;;;;;;;;15.57;51.14;100875.75;6186365;23;19916;-89
2022/05/03 07:33:37;;;;;;;;;;;;;;;15.38;49.89;100875.28;6203080;23;19920;-87
2022/05/03 07:36:03;;;;;;;;;;;;;;;15.32;51.12;100881.44;6187719;23;20037;-90
2022/05/03 07:38:30;;;;;;;;;;;;;;;15.37;50.90;100876.31;6162249;23;19916;-88
2022/05/03 07:41:21;;;;;;;;;;;;;;;15.47;50.08;100878.72;6186938;23;19912;-89
2022/05/03 07:43:48;;;;;;;;;;;;;;;15.50;49.78;100877.50;6210598;23;19935;-87
2022/05/03 07:46:13;;;;;;;;;;;;;;;15.13;49.85;100895.56;6213325;23;19912;-88
2022/05/03 07:51:42;;;;;;;;;;;;;;;14.85;51.27;100884.50;6210616;23;19919;-87
2022/05/03 07:54:09;;;;;;;;;;;;;;;14.97;51.17;100894.66;6158939;23;19923;-85
2022/05/03 07:56:37;;;;;;;;;;;;;;;14.82;51.84;100891.09;6184735;23;20353;-86
2022/05/03 08:02:10;;;;;;;;;;;;;;;15.12;50.05;100896.56;6213063;23;19961;-86
2022/05/03 08:04:39;;;;;;;;;;;;;;;14.98;50.74;100899.09;6187287;23;20340;-86
2022/05/03 08:07:04;;;;;;;;;;;;;;;15.04;49.35;100902.06;6190768;23;20055;-88
2022/05/03 08:09:30;;;;;;;;;;;;;;;15.03;48.41;100903.06;6184623;23;20589;-87
2022/05/03 08:11:57;;;;;;;;;;;;;;;14.94;48.83;100905.88;6184128;23;19912;-89
2022/05/03 08:14:28;;;;;;;;;;;;;;;14.90;49.41;100909.13;6182865;23;19958;-87
2022/05/03 08:16:55;;;;;;;;;;;;;;;14.73;51.13;100909.28;6211440;23;19943;-86
2022/05/03 08:19:25;;;;;;;;;;;;;;;14.73;51.70;100909.28;6159913;23;19912;-86
2022/05/03 08:21:54;;;;;;;;;;;;;;;14.75;50.77;100907.22;6184671;23;19908;-88
2022/05/03 08:24:20;;;;;;;;;;;;;;;14.56;50.69;100903.16;6162258;23;19912;-91
2022/05/03 08:26:45;;;;;;;;;;;;;;;14.65;50.52;100911.19;6160367;23;20312;-91
2022/05/03 08:29:11;;;;;;;;;;;;;;;14.74;50.98;100905.53;6184697;23;19937;-92
2022/05/03 08:31:38;;;;;;;;;;;;;;;14.92;51.16;100907.91;6186211;23;19985;-92
2022/05/03 08:34:03;;;;;;;;;;;;;;;15.14;50.61;100908.88;6183932;23;20002;-91
2022/05/03 08:36:29;;;;;;;;;;;;;;;15.38;49.38;100913.22;6187217;22;19941;-90
2022/05/03 08:44:25;;;;;;;;;;;;;;;16.32;47.01;100909.81;6189879;23;20402;-84
2022/05/03 08:46:53;;;;;;;;;;;;;;;16.09;46.91;100899.13;6184770;23;19935;-88
2022/05/03 08:49:18;;;;;;;;;;;;;;;16.13;46.82;100905.00;6182731;23;19912;-88
2022/05/03 08:51:45;;;;;;;;;;;;;;;16.31;45.70;100905.41;6187103;23;19912;-91
2022/05/03 08:54:15;;;;;;;;;;;;;;;16.09;46.69;100898.31;6159055;23;20328;-88
2022/05/03 08:56:41;;;;;;;;;;;;;;;16.23;46.92;100906.38;6193553;23;19903;-88
2022/05/03 08:59:12;;;;;;;;;;;;;;;16.43;46.55;100916.59;6189501;22;19916;-88
2022/05/03 09:01:42;;;;;;;;;;;;;;;16.17;47.34;100907.16;6161410;23;19916;-90
2022/05/03 09:04:07;;;;;;;;;;;;;;;16.46;46.91;100917.06;6163348;23;19919;-90
2022/05/03 09:06:43;;;;;;;;;;;;;;;16.62;45.24;100921.41;6197601;23;19900;-84
2022/05/03 09:09:12;;;;;;;;;;;;;;;16.27;45.75;100914.97;6193858;23;19950;-87
2022/05/03 09:11:46;;;;;;;;;;;;;;;16.54;45.65;100915.25;6211551;23;19904;-93
2022/05/03 09:14:12;;;;;;;;;;;;;;;16.74;45.36;100915.44;6223439;23;19916;-91
2022/05/03 09:16:49;;;;;;;;;;;;;;;16.55;46.29;100915.06;6165088;23;20312;-89
2022/05/03 09:19:24;;;;;;;;;;;;;;;16.39;46.81;100916.16;6163528;23;19964;-88
2022/05/03 09:24:55;;;;;;;;;;;;;;;16.46;46.83;100908.09;6216984;23;20014;-86
2022/05/03 09:27:21;;;;;;;;;;;;;;;16.30;47.30;100913.78;6187611;22;19912;-87
2022/05/03 09:30:01;;;;;;;;;;;;;;;16.13;47.91;100911.28;6159331;22;19919;-87
2022/05/03 09:32:56;;;;;;;;;;;;;;;16.28;47.63;100910.41;6165631;23;19916;-89
2022/05/03 09:35:31;;;;;;;;;;;;;;;16.25;47.59;100909.75;6208965;23;20023;-89
2022/05/03 09:37:57;;;;;;;;;;;;;;;16.32;47.73;100903.53;6181923;22;19943;-85
2022/05/03 09:40:22;;;;;;;;;;;;;;;16.10;47.88;100900.81;6179880;23;19912;-90
2022/05/03 09:42:54;;;;;;;;;;;;;;;16.15;47.56;100903.78;6154229;23;20286;-89
2022/05/03 09:45:25;;;;;;;;;;;;;;;16.32;48.54;100906.25;6180962;23;19918;-90
2022/05/03 09:47:53;;;;;;;;;;;;;;;16.14;51.69;100902.13;6180130;23;19989;-92
2022/05/03 09:50:40;;;;;;;;;;;;;;;16.08;53.91;100902.88;6154950;23;19913;-87
2022/05/03 09:53:08;;;;;;;;;;;;;;;15.83;54.50;100900.50;6183304;23;19923;-88
2022/05/03 09:55:37;;;;;;;;;;;;;;;15.73;54.28;100897.25;6179145;22;19916;-88
2022/05/03 09:58:06;;;;;;;;;;;;;;;15.34;55.74;100890.22;6185225;23;19913;-87
2022/05/03 10:00:36;;;;;;;;;;;;;;;15.39;54.67;100890.50;6195484;23;19913;-88
2022/05/03 10:03:01;;;;;;;;;;;;;;;15.52;53.39;100891.72;6179211;23;19935;-89
2022/05/03 10:05:27;;;;;;;;;;;;;;;15.73;52.82;100881.00;6153995;23;19969;-87
2022/05/03 10:07:54;;;;;;;;;;;;;;;15.81;51.34;100880.88;6184252;23;19913;-87
2022/05/03 10:10:19;;;;;;;;;;;;;;;15.93;51.49;100885.81;6183332;23;19999;-85
2022/05/03 10:12:49;;;;;;;;;;;;;;;16.04;48.95;100869.88;6152872;23;20244;-87
2022/05/03 10:20:35;;;;;;;;;;;;;;;16.06;49.60;100875.13;6156920;23;20294;-87
2022/05/03 10:20:51;;;;;;;;;;;;;;;16.39;48.55;100866.50;6179519;23;20614;-86
2022/05/03 10:23:24;;;;;;;;;;;;;;;16.60;47.24;100871.03;6178888;23;20268;-87
2022/05/03 10:25:59;;;;;;;;;;;;;;;16.53;47.03;100867.44;6176711;23;19916;-87
2022/05/03 10:28:27;;;;;;;;;;;;;;;16.82;46.43;100861.03;6154392;23;19916;-87
2022/05/03 10:31:07;;;;;;;;;;;;;;;17.02;45.48;100853.00;6177704;23;19913;-88
2022/05/03 10:33:35;;;;;;;;;;;;;;;17.03;44.16;100852.00;6179140;23;19919;-87
2022/05/03 10:36:01;;;;;;;;;;;;;;;16.57;44.36;100852.44;6202407;23;19931;-89
2022/05/03 10:38:43;;;;;;;;;;;;;;;16.55;44.90;100855.38;6157101;23;20312;-90
2022/05/03 10:41:10;;;;;;;;;;;;;;;16.50;44.78;100855.09;6187483;23;19916;-90
2022/05/03 10:43:37;;;;;;;;;;;;;;;16.63;43.09;100854.38;6211042;22;19924;-88
2022/05/03 10:46:22;;;;;;;;;;;;;;;16.44;44.03;100853.19;6183004;23;19954;-91
2022/05/03 10:49:09;;;;;;;;;;;;;;;16.72;43.67;100847.78;6182220;23;19912;-89
2022/05/03 10:51:35;;;;;;;;;;;;;;;16.99;43.55;100850.72;6182989;23;20313;-90
2022/05/03 10:54:06;;;;;;;;;;;;;;;17.23;43.34;100838.53;6209895;23;19912;-91
2022/05/03 10:56:32;;;;;;;;;;;;;;;16.92;43.98;100839.78;6210680;23;19920;-90
2022/05/03 10:59:14;;;;;;;;;;;;;;;16.86;44.17;100840.59;6187745;23;19920;-87
2022/05/03 11:01:59;;;;;;;;;;;;;;;17.00;44.29;100836.94;6183844;22;19933;-86
2022/05/03 11:04:27;;;;;;;;;;;;;;;17.00;44.46;100834.22;6210203;23;19977;-91
2022/05/03 11:07:15;;;;;;;;;;;;;;;16.70;45.42;100835.44;6211057;23;20018;-89
2022/05/03 11:09:41;;;;;;;;;;;;;;;16.75;45.38;100825.66;6195621;22;19919;-88
2022/05/03 11:12:08;;;;;;;;;;;;;;;16.41;46.04;100826.41;6208177;23;19923;-88
2022/05/03 11:14:52;;;;;;;;;;;;;;;16.35;46.45;100822.63;6206122;23;19912;-89
2022/05/03 11:17:45;;;;;;;;;;;;;;;16.48;45.97;100813.72;6217927;23;19908;-88
2022/05/03 11:20:14;;;;;;;;;;;;;;;16.61;45.65;100811.13;6231300;23;19920;-86
2022/05/03 11:22:49;;;;;;;;;;;;;;;16.34;46.41;100810.09;6221967;23;19911;-91
2022/05/03 11:25:26;;;;;;;;;;;;;;;16.37;45.66;100809.69;6205057;23;19919;-94
2022/05/03 11:27:56;;;;;;;;;;;;;;;16.21;45.86;100809.97;6195970;23;20257;-91
2022/05/03 11:30:23;;;;;;;;;;;;;;;15.96;45.91;100812.22;6214997;23;19923;-86
2022/05/03 11:32:51;;;;;;;;;;;;;;;16.06;45.98;100807.31;6185464;22;19912;-89
2022/05/03 11:35:23;;;;;;;;;;;;;;;16.09;46.24;100801.50;6156793;23;19983;-85
2022/05/03 11:37:54;;;;;;;;;;;;;;;16.13;46.45;100815.50;6186111;23;20182;-87
2022/05/03 11:40:20;;;;;;;;;;;;;;;16.37;46.11;100817.00;6184671;23;19912;-88
2022/05/03 11:42:47;;;;;;;;;;;;;;;16.32;45.70;100817.59;6182180;23;19912;-88
2022/05/03 11:45:16;;;;;;;;;;;;;;;15.82;46.69;100817.47;6160243;23;19916;-85
2022/05/03 11:47:43;;;;;;;;;;;;;;;15.84;46.48;100817.28;6207877;23;19918;-87
2022/05/03 11:55:59;;;;;;;;;;;;;;;16.04;46.20;100807.50;6210324;23;20315;-87
2022/05/03 11:58:24;;;;;;;;;;;;;;;16.13;46.30;100808.22;6186230;23;20386;-86
2022/05/03 12:00:50;;;;;;;;;;;;;;;16.15;46.17;100817.00;6182283;23;19912;-85
2022/05/03 12:03:16;;;;;;;;;;;;;;;16.01;46.53;100815.19;6214236;23;20305;-87
2022/05/03 12:05:56;;;;;;;;;;;;;;;16.28;46.17;100810.03;6183775;23;19919;-87
2022/05/03 12:08:23;;;;;;;;;;;;;;;16.29;46.00;100806.28;6183063;23;20002;-87
2022/05/03 12:10:51;;;;;;;;;;;;;;;16.17;46.07;100804.06;6209846;23;19994;-86
2022/05/03 12:13:22;;;;;;;;;;;;;;;16.19;46.15;100804.72;6191396;23;19947;-85
2022/05/03 12:16:06;;;;;;;;;;;;;;;16.32;46.01;100805.88;6208682;23;19938;-85
2022/05/03 12:18:42;;;;;;;;;;;;;;;16.42;45.87;100814.53;6210658;23;19916;-88
2022/05/03 12:21:09;;;;;;;;;;;;;;;16.45;45.79;100811.41;6182738;23;20318;-86
2022/05/03 12:23:46;;;;;;;;;;;;;;;16.23;46.42;100810.63;6182925;23;19965;-86
2022/05/03 12:26:14;;;;;;;;;;;;;;;16.27;46.56;100813.75;6211646;22;19912;-87
2022/05/03 12:28:44;;;;;;;;;;;;;;;16.73;45.50;100807.88;6209187;23;19999;-86
2022/05/03 12:31:12;;;;;;;;;;;;;;;16.25;46.58;100797.69;6209057;23;19919;-86
2022/05/03 12:33:48;;;;;;;;;;;;;;;16.31;46.49;100812.34;6183318;23;19995;-87
2022/05/03 12:36:32;;;;;;;;;;;;;;;16.04;47.68;100817.53;6161177;22;19928;-87
2022/05/03 12:39:32;;;;;;;;;;;;;;;15.81;48.61;100821.22;6161761;22;19912;-86
2022/05/03 12:42:02;;;;;;;;;;;;;;;15.40;50.10;100819.06;6211495;23;19915;-92
2022/05/03 12:44:29;;;;;;;;;;;;;;;15.34;50.50;100819.81;6209660;23;19916;-88
2022/05/03 12:47:09;;;;;;;;;;;;;;;15.43;51.15;100811.56;6207233;23;19912;-85
2022/05/03 12:49:38;;;;;;;;;;;;;;;15.59;51.43;100823.03;6207608;23;19969;-89
2022/05/03 12:52:07;;;;;;;;;;;;;;;15.70;51.29;100824.44;6209969;23;19919;-88
2022/05/03 12:54:33;;;;;;;;;;;;;;;15.13;55.27;100817.84;6184081;22;19908;-90
2022/05/03 12:59:49;;;;;;;;;;;;;;;14.74;57.65;100824.34;6217112;23;19922;-85
2022/05/03 13:02:15;;;;;;;;;;;;;;;14.50;59.99;100822.69;6185647;23;19939;-86
2022/05/03 13:04:40;;;;;;;;;;;;;;;14.62;60.52;100830.41;6170776;23;19912;-89
2022/05/03 13:07:05;;;;;;;;;;;;;;;14.34;62.79;100818.25;6185114;23;20396;-88
2022/05/03 13:09:33;;;;;;;;;;;;;;;14.41;63.82;100821.06;6181925;23;19981;-85
2022/05/03 13:12:03;;;;;;;;;;;;;;;14.60;63.26;100821.63;6185668;23;19941;-90
2022/05/03 13:14:44;;;;;;;;;;;;;;;14.42;63.90;100819.19;6195651;23;20265;-88
2022/05/03 13:17:10;;;;;;;;;;;;;;;14.41;63.78;100823.78;6206358;23;19919;-84
2022/05/03 13:19:42;;;;;;;;;;;;;;;14.44;63.93;100822.56;6288775;22;19977;-86
2022/05/03 13:22:11;;;;;;;;;;;;;;;14.31;64.71;100823.19;6213118;23;19935;-86
2022/05/03 13:24:43;;;;;;;;;;;;;;;14.08;65.76;100832.13;6210749;23;20260;-84
2022/05/03 13:27:12;;;;;;;;;;;;;;;14.09;65.43;100833.84;6212254;23;19923;-89
2022/05/03 13:29:41;;;;;;;;;;;;;;;14.17;64.65;100837.50;6204237;22;19904;-85
2022/05/03 13:32:10;;;;;;;;;;;;;;;14.00;64.25;100837.63;6159972;22;19916;-88
2022/05/03 13:34:39;;;;;;;;;;;;;;;14.13;64.03;100837.84;6218043;23;19908;-87
2022/05/03 13:42:32;;;;;;;;;;;;;;;14.43;60.52;100840.66;6336503;22;19980;-86
2022/05/03 13:44:58;;;;;;;;;;;;;;;14.43;61.56;100847.94;6308627;22;19914;-85
2022/05/03 13:47:25;;;;;;;;;;;;;;;14.53;61.09;100849.38;6307938;22;19944;-85
2022/05/03 13:49:52;;;;;;;;;;;;;;;13.94;62.36;100858.06;6310896;22;19984;-87
2022/05/03 13:52:17;;;;;;;;;;;;;;;13.99;62.54;100860.25;6283258;22;19990;-84
2022/05/03 13:54:43;;;;;;;;;;;;;;;13.93;62.33;100859.13;6309508;22;20299;-84
2022/05/03 13:57:08;;;;;;;;;;;;;;;14.00;63.25;100859.25;6336059;22;19915;-86
2022/05/03 13:59:39;;;;;;;;;;;;;;;14.12;63.04;100857.81;6308412;22;19919;-89
2022/05/03 14:02:10;;;;;;;;;;;;;;;13.98;63.64;100861.28;6339014;22;19944;-84
2022/05/03 14:04:39;;;;;;;;;;;;;;;13.98;62.08;100861.28;6338318;22;20357;-86
2022/05/03 14:07:07;;;;;;;;;;;;;;;13.25;64.08;100860.56;6344155;22;20400;-85
2022/05/03 14:09:32;;;;;;;;;;;;;;;13.58;65.32;100860.47;6339878;22;19910;-88
2022/05/03 14:11:58;;;;;;;;;;;;;;;13.69;65.44;100868.16;6308811;22;19959;-83
2022/05/03 14:14:24;;;;;;;;;;;;;;;13.74;62.81;100862.25;6312748;22;19911;-82
2022/05/03 14:16:50;;;;;;;;;;;;;;;13.70;63.63;100864.47;6319047;22;19940;-88
2022/05/03 14:19:17;;;;;;;;;;;;;;;13.76;63.01;100870.19;6312961;22;19993;-86
2022/05/03 14:21:42;;;;;;;;;;;;;;;13.77;62.13;100875.41;6308625;22;19915;-84
2022/05/03 14:24:09;;;;;;;;;;;;;;;13.76;61.88;100873.72;6336626;22;19924;-87
2022/05/03 14:26:42;;;;;;;;;;;;;;;13.77;61.25;100880.00;6332539;22;19919;-86
2022/05/03 14:29:08;;;;;;;;;;;;;;;13.72;60.83;100877.81;6335208;22;19910;-85
2022/05/03 14:31:43;;;;;;;;;;;;;;;13.60;60.11;100881.91;6309459;22;19910;-85
2022/05/03 14:34:10;;;;;;;;;;;;;;;13.63;60.01;100879.69;6336227;22;19944;-86
2022/05/03 14:36:36;;;;;;;;;;;;;;;13.55;60.11;100884.28;6232032;22;20100;-86
2022/05/03 14:39:02;;;;;;;;;;;;;;;13.55;59.28;100885.13;6182223;23;20359;-86
2022/05/03 14:41:33;;;;;;;;;;;;;;;13.52;60.03;100893.59;6156590;23;19912;-87
2022/05/03 14:44:00;;;;;;;;;;;;;;;13.55;59.82;100887.81;6209435;23;19912;-85
2022/05/03 14:46:26;;;;;;;;;;;;;;;13.50;60.55;100887.50;6162441;23;19916;-86
2022/05/03 14:48:51;;;;;;;;;;;;;;;13.49;60.82;100893.94;6159681;23;19911;-86
2022/05/03 14:51:19;;;;;;;;;;;;;;;13.51;61.57;100892.75;6210732;23;19961;-85
2022/05/03 14:53:47;;;;;;;;;;;;;;;13.50;61.29;100895.63;6181753;23;20348;-87
2022/05/03 15:04:25;;;;;;;;;;;;;;;13.33;64.80;100889.44;6209449;23;19927;-86
2022/05/03 15:07:07;;;;;;;;;;;;;;;13.31;65.29;100886.06;6169637;23;19900;-92
2022/05/03 15:09:54;;;;;;;;;;;;;;;13.35;62.65;100884.69;6207221;23;19937;-91
2022/05/03 15:12:19;;;;;;;;;;;;;;;13.36;60.12;100880.13;6185003;22;20264;-89
2022/05/03 15:14:47;;;;;;;;;;;;;;;13.22;56.47;100874.41;6188822;22;19959;-89
2022/05/03 15:17:19;;;;;;;;;;;;;;;13.06;55.21;100874.44;6172003;23;19920;-90
2022/05/03 15:19:45;;;;;;;;;;;;;;;13.16;55.58;100875.09;6212582;23;19920;-87
2022/05/03 15:22:11;;;;;;;;;;;;;;;13.12;55.63;100879.16;6182991;23;19923;-87
2022/05/03 15:24:38;;;;;;;;;;;;;;;13.14;56.85;100879.84;6212414;22;20036;-88
2022/05/03 15:27:21;;;;;;;;;;;;;;;13.28;56.06;100881.84;6216284;23;19916;-91
2022/05/03 15:29:49;;;;;;;;;;;;;;;13.31;49.04;100869.84;6214019;23;19932;-89
2022/05/03 15:32:26;;;;;;;;;;;;;;;13.34;49.08;100874.91;6215606;23;19916;-89
2022/05/03 15:34:52;;;;;;;;;;;;;;;13.47;51.36;100879.75;6169472;23;19912;-89
2022/05/03 15:37:18;;;;;;;;;;;;;;;13.47;53.02;100874.38;6201524;22;19918;-89
2022/05/03 15:39:47;;;;;;;;;;;;;;;13.58;53.97;100874.00;6202048;23;19923;-90
2022/05/03 15:42:14;;;;;;;;;;;;;;;13.63;54.21;100868.06;6161785;22;20265;-89
2022/05/03 15:44:40;;;;;;;;;;;;;;;13.51;55.15;100871.13;6210893;23;19951;-89
2022/05/03 15:47:11;;;;;;;;;;;;;;;13.53;54.53;100868.25;6212087;23;19919;-89
2022/05/03 15:49:39;;;;;;;;;;;;;;;13.66;54.36;100868.53;6182438;23;19935;-90
2022/05/03 15:52:04;;;;;;;;;;;;;;;13.81;54.73;100860.50;6184239;23;19920;-87
2022/05/03 15:54:30;;;;;;;;;;;;;;;13.85;53.82;100856.44;6212835;23;19956;-92
2022/05/03 15:56:55;;;;;;;;;;;;;;;14.05;54.31;100862.25;6211205;23;19912;-86
2022/05/03 15:59:23;;;;;;;;;;;;;;;14.05;54.77;100859.53;6182129;22;20313;-89
2022/05/03 16:01:48;;;;;;;;;;;;;;;14.05;52.41;100859.53;6210510;23;19912;-89
2022/05/03 16:04:16;;;;;;;;;;;;;;;13.91;53.27;100860.31;6159330;23;20377;-90
2022/05/03 16:06:41;;;;;;;;;;;;;;;13.97;52.49;100856.88;6187093;23;19934;-87
2022/05/03 16:09:10;;;;;;;;;;;;;;;14.00;49.51;100856.53;6191466;22;19916;-88
2022/05/03 16:11:36;;;;;;;;;;;;;;;13.73;48.78;100858.69;6185493;22;20265;-89
2022/05/03 16:14:09;;;;;;;;;;;;;;;13.62;46.38;100850.97;6187335;23;19926;-89
2022/05/03 16:16:38;;;;;;;;;;;;;;;13.52;45.79;100842.25;6212055;22;19916;-90
2022/05/03 16:19:04;;;;;;;;;;;;;;;13.49;44.04;100839.91;6218398;23;19994;-88
2022/05/03 16:21:34;;;;;;;;;;;;;;;13.47;43.19;100836.56;6193608;22;19912;-88
2022/05/03 16:24:03;;;;;;;;;;;;;;;13.42;41.62;100828.13;6217892;23;19908;-90
2022/05/03 16:26:30;;;;;;;;;;;;;;;13.38;41.88;100834.91;6221109;23;20263;-88
2022/05/03 16:29:02;;;;;;;;;;;;;;;13.50;40.82;100837.03;6215716;23;19912;-86
2022/05/03 16:31:32;;;;;;;;;;;;;;;13.42;40.92;100836.25;6181974;23;20333;-89
2022/05/03 16:34:03;;;;;;;;;;;;;;;13.35;40.92;100835.25;6183238;23;20369;-91
2022/05/03 16:42:08;;;;;;;;;;;;;;;13.50;40.72;100836.19;6213724;23;19919;-91
2022/05/03 16:44:35;;;;;;;;;;;;;;;13.60;40.72;100835.97;6211714;23;20309;-89
2022/05/03 16:47:04;;;;;;;;;;;;;;;13.60;40.89;100839.53;6181791;23;20327;-90